Time;durP1;ratioP1;P1;durP2;ratioP2;P2;SDS_P1;SDS_P2;PMS_P1;PMS_P2;Temp;Humidity;BMP_temperature;BMP_pressure;BME280_temperature;BME280_humidity;BME280_pressure;Samples;Min_cycle;Max_cycle;Signal;HPM_P1;HPM_P2
2024/03/10 00:01:58;;;;;;;19.93;12.13;;;;;;;;;;4973001;28;20203;-74
2024/03/10 00:04:24;;;;;;;15.03;10.70;;;;;;;;;;4974061;28;20180;-74
2024/03/10 00:06:49;;;;;;;17.57;11.23;;;;;;;;;;4969619;28;20523;-73
2024/03/10 00:09:16;;;;;;;18.77;11.60;;;;;;;;;;4949360;28;20270;-72
2024/03/10 00:11:42;;;;;;;21.23;11.57;;;;;;;;;;4972550;28;20598;-72
2024/03/10 00:14:07;;;;;;;16.97;10.77;;;;;;;;;;4975022;28;20177;-73
2024/03/10 00:16:33;;;;;;;18.10;11.03;;;;;;;;;;4971485;28;20187;-72
2024/03/10 00:18:58;;;;;;;18.47;11.83;;;;;;;;;;4947431;28;20711;-72
2024/03/10 00:21:24;;;;;;;19.77;12.20;;;;;;;;;;4972352;28;20204;-72
2024/03/10 00:23:49;;;;;;;17.57;11.43;;;;;;;;;;4984934;28;20184;-72
2024/03/10 00:26:15;;;;;;;20.20;11.83;;;;;;;;;;4971739;28;20258;-73
2024/03/10 00:28:40;;;;;;;18.23;11.23;;;;;;;;;;4969012;28;20180;-72
2024/03/10 00:31:08;;;;;;;22.53;11.60;;;;;;;;;;4970169;28;20173;-72
2024/03/10 00:33:34;;;;;;;18.73;11.43;;;;;;;;;;4950257;28;20222;-72
2024/03/10 00:35:59;;;;;;;18.93;11.83;;;;;;;;;;4982922;28;20176;-72
2024/03/10 00:38:27;;;;;;;21.97;12.23;;;;;;;;;;4974786;28;20223;-72
2024/03/10 00:40:52;;;;;;;19.00;12.10;;;;;;;;;;4969223;28;20188;-72
2024/03/10 00:43:18;;;;;;;17.60;11.97;;;;;;;;;;4985650;28;20197;-72
2024/03/10 00:45:43;;;;;;;23.20;12.20;;;;;;;;;;4968170;28;20457;-72
2024/03/10 00:48:08;;;;;;;18.10;11.20;;;;;;;;;;4969089;28;20267;-73
2024/03/10 00:50:33;;;;;;;17.43;11.07;;;;;;;;;;4965163;28;20606;-72
2024/03/10 00:52:58;;;;;;;17.43;11.40;;;;;;;;;;4956854;28;20239;-72
2024/03/10 00:55:24;;;;;;;20.37;12.20;;;;;;;;;;4970760;28;20172;-74
2024/03/10 00:57:50;;;;;;;18.30;11.87;;;;;;;;;;4955275;28;20207;-72
2024/03/10 01:00:15;;;;;;;18.47;12.20;;;;;;;;;;4952701;28;20184;-72
2024/03/10 01:02:40;;;;;;;18.57;12.00;;;;;;;;;;4968872;28;20683;-72
2024/03/10 01:05:06;;;;;;;17.33;11.30;;;;;;;;;;4969591;28;20549;-72
2024/03/10 01:07:31;;;;;;;18.83;11.47;;;;;;;;;;4960103;28;20711;-72
2024/03/10 01:09:57;;;;;;;22.50;10.83;;;;;;;;;;4979802;28;20564;-73
2024/03/10 01:12:22;;;;;;;18.37;12.23;;;;;;;;;;4969906;28;20255;-73
2024/03/10 01:14:47;;;;;;;19.00;11.87;;;;;;;;;;4983869;28;20177;-73
2024/03/10 01:17:13;;;;;;;20.57;11.23;;;;;;;;;;4952080;28;20192;-73
2024/03/10 01:19:39;;;;;;;20.43;10.43;;;;;;;;;;4987517;28;20184;-73
2024/03/10 01:22:04;;;;;;;21.90;11.47;;;;;;;;;;4969065;28;20207;-73
2024/03/10 01:24:30;;;;;;;18.20;10.87;;;;;;;;;;4950167;28;20192;-73
2024/03/10 01:26:57;;;;;;;19.53;12.27;;;;;;;;;;4967973;28;20568;-73
2024/03/10 01:29:23;;;;;;;18.33;11.23;;;;;;;;;;4969816;28;20210;-73
2024/03/10 01:31:48;;;;;;;17.83;11.53;;;;;;;;;;4971187;28;20228;-73
2024/03/10 01:34:14;;;;;;;22.27;13.23;;;;;;;;;;4970445;28;20259;-73
2024/03/10 01:36:40;;;;;;;21.57;11.07;;;;;;;;;;4952167;28;20216;-73
2024/03/10 01:39:05;;;;;;;18.43;11.40;;;;;;;;;;4970210;28;20212;-74
2024/03/10 01:41:31;;;;;;;20.07;12.50;;;;;;;;;;4967816;28;20187;-73
2024/03/10 01:43:56;;;;;;;17.43;11.23;;;;;;;;;;4963098;28;20210;-73
2024/03/10 01:46:23;;;;;;;18.57;12.03;;;;;;;;;;4948744;28;20730;-73
2024/03/10 01:48:49;;;;;;;20.23;11.87;;;;;;;;;;4970097;28;20180;-73
2024/03/10 01:51:14;;;;;;;18.13;11.93;;;;;;;;;;4968339;28;20182;-73
2024/03/10 01:53:40;;;;;;;20.80;11.67;;;;;;;;;;4970039;28;20564;-73
2024/03/10 01:56:06;;;;;;;21.17;12.50;;;;;;;;;;4971164;28;20263;-73
2024/03/10 01:58:31;;;;;;;19.57;12.53;;;;;;;;;;4967308;28;20682;-74
2024/03/10 02:00:58;;;;;;;20.40;12.80;;;;;;;;;;4967754;28;20243;-73
2024/03/10 02:03:24;;;;;;;21.97;12.37;;;;;;;;;;4958559;28;20204;-73
2024/03/10 02:05:49;;;;;;;19.67;11.23;;;;;;;;;;4964059;28;20180;-73
2024/03/10 02:08:14;;;;;;;20.63;11.63;;;;;;;;;;4963566;28;20704;-74
2024/03/10 02:10:46;;;;;;;20.33;12.57;;;;;;;;;;4962884;28;20191;-73
2024/03/10 02:13:11;;;;;;;20.60;12.40;;;;;;;;;;4968912;28;20196;-74
2024/03/10 02:15:37;;;;;;;20.63;12.37;;;;;;;;;;4969827;28;20184;-74
2024/03/10 02:18:03;;;;;;;22.10;13.33;;;;;;;;;;4969262;28;20184;-74
2024/03/10 02:20:28;;;;;;;20.77;11.50;;;;;;;;;;4970482;28;20199;-73
2024/03/10 02:22:53;;;;;;;18.63;11.67;;;;;;;;;;4969284;28;20299;-74
2024/03/10 02:25:22;;;;;;;21.57;12.03;;;;;;;;;;4952400;28;20543;-73
2024/03/10 02:27:50;;;;;;;17.67;11.83;;;;;;;;;;4965499;28;20283;-74
2024/03/10 02:30:19;;;;;;;21.30;12.10;;;;;;;;;;4949539;28;20272;-74
2024/03/10 02:49:11;;;;;;;19.80;12.17;;;;;;;;;;4965231;28;20200;-73
2024/03/10 02:51:36;;;;;;;21.07;12.70;;;;;;;;;;4968600;28;20664;-74
2024/03/10 02:54:02;;;;;;;22.60;11.30;;;;;;;;;;4963485;28;20239;-74
2024/03/10 02:56:27;;;;;;;20.87;11.67;;;;;;;;;;4964835;28;20199;-74
2024/03/10 02:58:52;;;;;;;18.83;11.20;;;;;;;;;;4975450;28;20800;-73
2024/03/10 03:01:18;;;;;;;23.37;13.73;;;;;;;;;;4980033;28;20221;-74
2024/03/10 03:03:44;;;;;;;23.10;12.50;;;;;;;;;;4969564;28;20188;-73
2024/03/10 03:06:10;;;;;;;17.30;11.43;;;;;;;;;;4969891;28;20626;-74
2024/03/10 03:08:35;;;;;;;20.83;12.57;;;;;;;;;;4983256;28;20703;-74
2024/03/10 03:11:01;;;;;;;22.47;13.27;;;;;;;;;;4968024;28;20192;-74
2024/03/10 03:13:26;;;;;;;19.43;12.27;;;;;;;;;;4952267;28;20205;-73
2024/03/10 03:15:51;;;;;;;21.83;13.33;;;;;;;;;;4947625;28;20185;-73
2024/03/10 03:18:16;;;;;;;21.40;12.77;;;;;;;;;;4965554;28;20181;-74
2024/03/10 03:20:42;;;;;;;20.27;11.87;;;;;;;;;;4955588;28;20234;-74
2024/03/10 03:23:08;;;;;;;24.20;13.60;;;;;;;;;;4971543;28;20247;-73
2024/03/10 03:25:33;;;;;;;20.20;12.23;;;;;;;;;;4972354;28;20192;-73
2024/03/10 03:27:58;;;;;;;24.57;12.87;;;;;;;;;;4976637;28;20242;-73
2024/03/10 03:30:23;;;;;;;27.57;14.27;;;;;;;;;;4954625;28;20184;-73
2024/03/10 03:32:48;;;;;;;21.60;13.33;;;;;;;;;;4984315;28;20252;-74
2024/03/10 03:35:17;;;;;;;23.77;13.40;;;;;;;;;;4972965;28;20203;-73
2024/03/10 03:37:42;;;;;;;21.87;12.83;;;;;;;;;;4971714;28;20276;-73
2024/03/10 03:40:08;;;;;;;22.77;14.07;;;;;;;;;;4973079;28;20267;-73
2024/03/10 03:42:36;;;;;;;25.30;13.23;;;;;;;;;;4977601;28;20215;-73
2024/03/10 03:45:05;;;;;;;21.17;14.07;;;;;;;;;;4979768;28;20181;-73
2024/03/10 03:47:30;;;;;;;24.27;15.07;;;;;;;;;;4979966;28;20223;-74
2024/03/10 03:49:55;;;;;;;21.43;13.33;;;;;;;;;;4985940;28;20192;-74
2024/03/10 03:52:21;;;;;;;21.13;13.63;;;;;;;;;;4977245;28;20684;-73
2024/03/10 03:54:46;;;;;;;23.23;14.57;;;;;;;;;;4973155;28;20666;-73
2024/03/10 03:57:11;;;;;;;23.83;14.07;;;;;;;;;;4953180;28;20243;-74
2024/03/10 03:59:40;;;;;;;34.00;15.37;;;;;;;;;;4971386;28;20196;-74
2024/03/10 04:02:05;;;;;;;18.67;12.60;;;;;;;;;;4953945;28;20303;-73
2024/03/10 04:04:30;;;;;;;21.47;13.50;;;;;;;;;;4964720;28;20311;-74
2024/03/10 04:06:56;;;;;;;22.43;13.63;;;;;;;;;;4965431;28;20299;-73
2024/03/10 04:09:21;;;;;;;23.63;13.83;;;;;;;;;;4972710;28;20180;-73
2024/03/10 04:11:46;;;;;;;22.73;15.00;;;;;;;;;;4972686;28;20647;-73
2024/03/10 04:14:13;;;;;;;25.20;15.33;;;;;;;;;;4971441;28;20658;-73
2024/03/10 04:16:39;;;;;;;24.33;14.23;;;;;;;;;;4955739;28;20216;-73
2024/03/10 04:19:04;;;;;;;23.03;14.17;;;;;;;;;;4967660;28;20274;-73
2024/03/10 04:21:30;;;;;;;22.90;13.83;;;;;;;;;;4967762;28;20185;-73
2024/03/10 04:23:55;;;;;;;23.63;14.30;;;;;;;;;;4966586;28;20212;-73
2024/03/10 04:26:22;;;;;;;22.17;13.37;;;;;;;;;;4970451;28;20204;-73
2024/03/10 04:28:48;;;;;;;24.43;14.40;;;;;;;;;;4972477;28;20194;-73
2024/03/10 04:31:13;;;;;;;24.17;14.37;;;;;;;;;;4952889;28;20176;-73
2024/03/10 04:33:38;;;;;;;24.83;14.90;;;;;;;;;;4972703;28;20235;-74
2024/03/10 04:36:04;;;;;;;23.53;14.13;;;;;;;;;;4969815;28;20204;-74
2024/03/10 04:38:29;;;;;;;24.70;14.83;;;;;;;;;;4969150;28;20173;-74
2024/03/10 04:40:55;;;;;;;24.07;13.27;;;;;;;;;;4979909;28;20187;-74
2024/03/10 04:43:21;;;;;;;24.03;13.73;;;;;;;;;;4965195;28;20695;-73
2024/03/10 04:45:46;;;;;;;26.03;14.27;;;;;;;;;;4972362;28;20172;-74
2024/03/10 04:48:11;;;;;;;22.80;13.77;;;;;;;;;;4983997;28;20216;-74
2024/03/10 04:50:36;;;;;;;26.83;13.80;;;;;;;;;;4970839;28;20607;-74
2024/03/10 04:53:02;;;;;;;22.50;14.73;;;;;;;;;;4953768;28;20275;-74
2024/03/10 04:55:29;;;;;;;20.63;14.13;;;;;;;;;;4965043;28;20173;-74
2024/03/10 04:57:57;;;;;;;22.40;14.47;;;;;;;;;;4970402;28;20188;-73
2024/03/10 05:00:22;;;;;;;22.47;13.90;;;;;;;;;;4968182;28;20283;-74
2024/03/10 05:02:47;;;;;;;21.23;13.47;;;;;;;;;;4968941;28;20819;-74
2024/03/10 05:05:13;;;;;;;23.00;13.23;;;;;;;;;;4969251;28;20181;-74
2024/03/10 05:07:39;;;;;;;27.50;15.73;;;;;;;;;;4968531;28;20215;-74
2024/03/10 05:10:05;;;;;;;22.50;14.67;;;;;;;;;;4970687;28;20176;-74
2024/03/10 05:12:30;;;;;;;22.87;14.53;;;;;;;;;;4971415;28;20274;-74
2024/03/10 05:14:55;;;;;;;25.70;14.47;;;;;;;;;;4968005;28;20251;-73
2024/03/10 05:17:21;;;;;;;22.20;14.43;;;;;;;;;;4970484;28;20668;-73
2024/03/10 05:19:46;;;;;;;24.10;14.50;;;;;;;;;;4961177;28;20200;-72
2024/03/10 05:22:12;;;;;;;22.07;13.87;;;;;;;;;;4969687;28;20226;-72
2024/03/10 05:24:43;;;;;;;25.80;14.73;;;;;;;;;;4968714;28;20657;-72
2024/03/10 05:27:15;;;;;;;24.57;14.97;;;;;;;;;;4965171;28;20244;-72
2024/03/10 05:29:40;;;;;;;25.60;15.03;;;;;;;;;;4965856;28;20503;-72
2024/03/10 05:32:06;;;;;;;25.90;15.33;;;;;;;;;;4971150;28;20234;-73
2024/03/10 05:34:32;;;;;;;24.70;14.53;;;;;;;;;;4968012;28;20648;-73
2024/03/10 05:36:57;;;;;;;24.40;14.07;;;;;;;;;;4949487;28;20924;-73
2024/03/10 05:39:23;;;;;;;26.47;15.27;;;;;;;;;;4963271;28;20181;-73
2024/03/10 05:41:48;;;;;;;27.10;14.93;;;;;;;;;;4967688;28;20199;-73
2024/03/10 05:44:14;;;;;;;25.63;14.10;;;;;;;;;;4969835;28;20267;-72
2024/03/10 05:46:39;;;;;;;24.77;15.13;;;;;;;;;;4964692;28;20240;-73
2024/03/10 05:49:05;;;;;;;24.83;15.30;;;;;;;;;;4968101;28;20272;-73
2024/03/10 05:51:30;;;;;;;25.07;14.90;;;;;;;;;;4968819;28;20176;-73
2024/03/10 05:53:56;;;;;;;24.33;14.67;;;;;;;;;;4964263;28;20299;-73
2024/03/10 05:56:21;;;;;;;25.37;15.00;;;;;;;;;;4951724;28;20479;-73
2024/03/10 05:58:46;;;;;;;25.30;14.77;;;;;;;;;;4964553;28;20176;-73
2024/03/10 06:01:11;;;;;;;27.83;15.20;;;;;;;;;;4971383;28;20188;-73
2024/03/10 06:03:37;;;;;;;27.93;15.70;;;;;;;;;;4980434;28;20199;-73
2024/03/10 06:06:02;;;;;;;23.73;14.40;;;;;;;;;;4970237;28;20225;-73
2024/03/10 06:08:28;;;;;;;25.17;15.10;;;;;;;;;;4970556;28;20636;-72
2024/03/10 06:10:53;;;;;;;29.97;15.80;;;;;;;;;;4971009;28;20177;-72
2024/03/10 06:13:19;;;;;;;23.70;14.63;;;;;;;;;;4943989;28;20271;-72
2024/03/10 06:15:44;;;;;;;26.37;15.50;;;;;;;;;;4964999;28;20185;-73
2024/03/10 06:18:15;;;;;;;25.93;14.87;;;;;;;;;;4964533;28;20697;-72
2024/03/10 06:26:26;;;;;;;24.90;14.77;;;;;;;;;;4970404;28;20656;-73
2024/03/10 06:28:52;;;;;;;23.93;14.27;;;;;;;;;;4954787;28;20275;-72
2024/03/10 06:31:18;;;;;;;25.53;15.03;;;;;;;;;;4962848;28;20177;-73
2024/03/10 06:33:44;;;;;;;29.17;15.13;;;;;;;;;;4963594;28;20196;-73
2024/03/10 06:36:09;;;;;;;22.07;14.43;;;;;;;;;;4976031;28;20184;-73
2024/03/10 06:38:38;;;;;;;24.57;13.80;;;;;;;;;;4966339;28;20192;-73
2024/03/10 06:41:04;;;;;;;28.07;16.33;;;;;;;;;;4966882;28;20195;-73
2024/03/10 06:43:29;;;;;;;24.97;15.53;;;;;;;;;;4970139;28;20207;-73
2024/03/10 06:45:55;;;;;;;25.27;14.63;;;;;;;;;;4969644;28;20263;-73
2024/03/10 06:48:21;;;;;;;24.23;13.40;;;;;;;;;;4953210;28;20703;-73
2024/03/10 06:50:46;;;;;;;26.27;15.07;;;;;;;;;;4962720;28;20267;-73
2024/03/10 06:53:11;;;;;;;24.20;13.30;;;;;;;;;;4965906;28;20200;-73
2024/03/10 06:55:36;;;;;;;25.97;14.90;;;;;;;;;;4966351;28;20255;-73
2024/03/10 06:58:02;;;;;;;27.07;14.63;;;;;;;;;;4969911;28;20184;-73
2024/03/10 07:00:29;;;;;;;24.70;14.47;;;;;;;;;;4966816;28;20196;-73
2024/03/10 07:02:55;;;;;;;24.33;14.93;;;;;;;;;;4953327;28;20208;-73
2024/03/10 07:05:20;;;;;;;27.67;15.17;;;;;;;;;;4969364;28;20189;-73
2024/03/10 07:07:46;;;;;;;23.70;13.93;;;;;;;;;;4972175;28;20587;-72
2024/03/10 07:10:12;;;;;;;23.70;13.27;;;;;;;;;;4956721;28;20184;-73
2024/03/10 07:12:38;;;;;;;21.13;13.97;;;;;;;;;;4974081;28;20672;-74
2024/03/10 07:15:03;;;;;;;25.20;14.80;;;;;;;;;;4970775;28;20208;-74
2024/03/10 07:17:29;;;;;;;23.53;13.80;;;;;;;;;;4970689;28;20272;-74
2024/03/10 07:19:54;;;;;;;24.23;13.73;;;;;;;;;;4965304;28;20600;-74
2024/03/10 07:22:19;;;;;;;25.40;14.57;;;;;;;;;;4971708;28;20220;-73
2024/03/10 07:24:44;;;;;;;22.50;13.50;;;;;;;;;;4971518;28;20627;-72
2024/03/10 07:27:09;;;;;;;24.03;13.13;;;;;;;;;;4971804;28;20263;-73
2024/03/10 07:29:34;;;;;;;25.37;14.60;;;;;;;;;;4971584;28;20227;-72
2024/03/10 07:32:00;;;;;;;22.00;12.60;;;;;;;;;;4984435;28;20200;-73
2024/03/10 07:34:25;;;;;;;23.57;13.27;;;;;;;;;;4971865;28;20176;-72
2024/03/10 07:36:50;;;;;;;21.20;14.10;;;;;;;;;;4983044;28;20280;-72
2024/03/10 07:39:15;;;;;;;21.10;12.20;;;;;;;;;;4968524;28;20275;-72
2024/03/10 07:41:44;;;;;;;23.37;14.20;;;;;;;;;;4985995;28;20200;-72
2024/03/10 07:44:09;;;;;;;24.70;13.60;;;;;;;;;;4972994;28;20234;-72
2024/03/10 07:46:34;;;;;;;21.07;12.77;;;;;;;;;;4959050;28;20208;-72
2024/03/10 07:49:02;;;;;;;20.60;13.07;;;;;;;;;;4972099;28;20355;-73
2024/03/10 07:51:30;;;;;;;21.60;13.73;;;;;;;;;;4955103;28;20188;-73
2024/03/10 07:53:55;;;;;;;24.27;13.17;;;;;;;;;;4981847;28;20180;-73
2024/03/10 07:56:21;;;;;;;20.80;13.03;;;;;;;;;;4984002;28;20188;-72
2024/03/10 07:58:47;;;;;;;21.20;12.70;;;;;;;;;;4948187;28;20204;-72
2024/03/10 08:01:12;;;;;;;21.13;13.03;;;;;;;;;;4950348;28;20191;-72
2024/03/10 08:03:37;;;;;;;24.03;13.10;;;;;;;;;;4984770;28;20207;-72
2024/03/10 08:06:03;;;;;;;20.20;11.93;;;;;;;;;;4969042;28;20177;-72
2024/03/10 08:08:28;;;;;;;26.67;13.70;;;;;;;;;;4973358;28;20265;-73
2024/03/10 08:10:55;;;;;;;20.43;12.37;;;;;;;;;;4971444;28;20173;-73
2024/03/10 08:13:21;;;;;;;19.07;11.47;;;;;;;;;;4987983;28;20204;-73
2024/03/10 08:15:47;;;;;;;20.40;13.80;;;;;;;;;;4985129;28;20180;-73
2024/03/10 08:18:12;;;;;;;22.53;12.57;;;;;;;;;;4969308;28;20184;-73
2024/03/10 08:20:37;;;;;;;21.30;12.03;;;;;;;;;;4972593;28;20571;-73
2024/03/10 08:23:04;;;;;;;20.73;13.10;;;;;;;;;;4993877;23;20235;-68
2024/03/10 08:25:30;;;;;;;19.40;11.60;;;;;;;;;;4993092;28;20190;-68
2024/03/10 08:27:56;;;;;;;20.50;13.07;;;;;;;;;;4989664;28;20207;-68
2024/03/10 08:30:21;;;;;;;18.53;11.70;;;;;;;;;;4977750;28;20178;-68
2024/03/10 08:32:46;;;;;;;20.33;11.77;;;;;;;;;;4989767;28;20287;-68
2024/03/10 08:35:11;;;;;;;20.87;13.03;;;;;;;;;;4974369;28;20179;-68
2024/03/10 08:37:37;;;;;;;19.43;11.43;;;;;;;;;;4967090;28;20559;-68
2024/03/10 08:40:09;;;;;;;22.17;12.70;;;;;;;;;;4988932;28;20295;-67
2024/03/10 08:42:36;;;;;;;18.87;11.53;;;;;;;;;;4986586;28;20206;-68
2024/03/10 08:45:01;;;;;;;18.67;12.37;;;;;;;;;;4992706;28;20309;-70
2024/03/10 08:47:26;;;;;;;20.63;12.37;;;;;;;;;;4971805;28;20655;-67
2024/03/10 08:49:52;;;;;;;20.37;12.20;;;;;;;;;;4989736;28;20667;-68
2024/03/10 08:52:18;;;;;;;19.73;12.20;;;;;;;;;;4992544;28;20187;-66
2024/03/10 08:54:43;;;;;;;18.83;11.80;;;;;;;;;;4988486;28;20180;-67
2024/03/10 08:57:09;;;;;;;18.60;12.40;;;;;;;;;;4982340;28;20195;-68
2024/03/10 08:59:35;;;;;;;18.67;11.43;;;;;;;;;;4991409;28;20179;-68
2024/03/10 09:02:01;;;;;;;19.00;12.60;;;;;;;;;;4991476;28;20203;-68
2024/03/10 09:04:27;;;;;;;19.10;10.80;;;;;;;;;;4991028;28;20639;-69
2024/03/10 09:06:54;;;;;;;20.40;12.23;;;;;;;;;;4993520;28;20207;-69
2024/03/10 09:09:20;;;;;;;21.40;12.13;;;;;;;;;;4976317;28;20190;-69
2024/03/10 09:11:46;;;;;;;19.43;12.17;;;;;;;;;;4998490;28;20180;-69
2024/03/10 09:14:12;;;;;;;17.03;11.37;;;;;;;;;;4982395;28;20183;-69
2024/03/10 09:16:37;;;;;;;15.10;10.60;;;;;;;;;;4970406;28;20586;-69
2024/03/10 09:19:05;;;;;;;22.20;13.83;;;;;;;;;;4986995;28;20188;-69
2024/03/10 09:21:31;;;;;;;19.40;11.70;;;;;;;;;;4984007;28;20180;-67
2024/03/10 09:23:56;;;;;;;16.95;11.07;;;;;;;;;;4989604;28;20258;-68
2024/03/10 09:26:21;;;;;;;20.85;11.77;;;;;;;;;;4995900;28;20172;-69
2024/03/10 09:28:46;;;;;;;17.02;11.20;;;;;;;;;;4989412;28;20551;-69
2024/03/10 09:31:14;;;;;;;18.75;12.07;;;;;;;;;;4989617;28;20168;-69
2024/03/10 09:33:41;;;;;;;19.55;11.90;;;;;;;;;;4983666;28;20208;-69
2024/03/10 09:36:07;;;;;;;17.50;11.05;;;;;;;;;;4987117;28;20192;-69
2024/03/10 09:38:33;;;;;;;17.35;11.90;;;;;;;;;;4987991;28;20250;-68
2024/03/10 09:40:59;;;;;;;15.45;10.20;;;;;;;;;;4983009;28;20267;-70
2024/03/10 09:43:24;;;;;;;16.50;10.32;;;;;;;;;;4985871;28;20207;-69
2024/03/10 09:45:52;;;;;;;16.98;10.88;;;;;;;;;;4991579;28;20175;-67
2024/03/10 09:48:17;;;;;;;15.18;10.27;;;;;;;;;;4990114;28;20294;-68
2024/03/10 09:50:49;;;;;;;18.10;10.52;;;;;;;;;;4972981;28;20614;-68
2024/03/10 09:53:17;;;;;;;18.15;10.05;;;;;;;;;;4988616;28;20572;-67
2024/03/10 09:55:42;;;;;;;17.02;10.23;;;;;;;;;;4992106;28;20176;-68
2024/03/10 09:58:12;;;;;;;18.02;10.48;;;;;;;;;;4989022;28;20410;-69
2024/03/10 10:00:39;;;;;;;17.88;10.30;;;;;;;;;;4985558;28;20561;-68
2024/03/10 10:03:07;;;;;;;18.80;11.25;;;;;;;;;;4970390;28;20211;-69
2024/03/10 10:05:34;;;;;;;15.38;11.07;;;;;;;;;;4992298;28;20234;-69
2024/03/10 10:08:01;;;;;;;17.67;11.18;;;;;;;;;;4989478;28;20214;-70
2024/03/10 10:10:26;;;;;;;15.98;10.70;;;;;;;;;;4988788;28;20263;-68
2024/03/10 10:12:53;;;;;;;18.77;10.25;;;;;;;;;;4987498;28;20278;-68
2024/03/10 10:15:21;;;;;;;17.95;11.20;;;;;;;;;;4974563;28;20616;-69
2024/03/10 10:17:57;;;;;;;16.38;11.02;;;;;;;;;;4988859;28;20180;-69
2024/03/10 10:20:25;;;;;;;15.82;10.85;;;;;;;;;;4984652;28;20179;-69
2024/03/10 10:22:52;;;;;;;18.23;11.32;;;;;;;;;;4963517;28;20313;-69
2024/03/10 10:25:17;;;;;;;17.92;11.73;;;;;;;;;;4984586;28;20187;-69
2024/03/10 10:27:49;;;;;;;16.13;9.98;;;;;;;;;;4987553;28;20202;-68
2024/03/10 10:30:26;;;;;;;15.05;10.20;;;;;;;;;;4987119;28;20172;-68
2024/03/10 10:33:07;;;;;;;16.50;10.90;;;;;;;;;;4973748;28;20206;-69
2024/03/10 10:35:33;;;;;;;15.50;10.13;;;;;;;;;;4986183;28;20183;-68
2024/03/10 10:38:03;;;;;;;14.90;10.00;;;;;;;;;;4987350;28;20254;-69
2024/03/10 10:40:29;;;;;;;16.35;10.55;;;;;;;;;;4980373;28;20179;-68
2024/03/10 10:42:54;;;;;;;14.50;10.02;;;;;;;;;;4984954;28;20268;-69
2024/03/10 10:45:20;;;;;;;16.02;10.00;;;;;;;;;;4991046;28;20195;-69
2024/03/10 10:47:45;;;;;;;15.65;10.68;;;;;;;;;;4987905;28;20210;-69
2024/03/10 10:50:20;;;;;;;18.27;10.07;;;;;;;;;;4987712;28;20176;-69
2024/03/10 10:52:46;;;;;;;16.77;10.60;;;;;;;;;;4961681;28;20199;-68
2024/03/10 10:55:11;;;;;;;16.33;10.95;;;;;;;;;;4978045;28;20250;-69
2024/03/10 10:57:40;;;;;;;16.02;10.23;;;;;;;;;;4985368;28;20191;-68
2024/03/10 11:00:16;;;;;;;17.33;11.00;;;;;;;;;;4988063;28;20532;-67
2024/03/10 11:02:41;;;;;;;15.50;10.27;;;;;;;;;;4962190;28;20242;-68
2024/03/10 11:05:07;;;;;;;18.67;10.95;;;;;;;;;;4987850;28;20183;-67
2024/03/10 11:07:32;;;;;;;16.17;10.90;;;;;;;;;;4983358;28;20211;-67
2024/03/10 11:09:57;;;;;;;17.15;10.68;;;;;;;;;;4986988;28;20216;-68
2024/03/10 11:12:23;;;;;;;14.90;10.05;;;;;;;;;;4982381;28;20222;-68
2024/03/10 11:14:49;;;;;;;15.32;10.52;;;;;;;;;;4988085;28;20643;-66
2024/03/10 11:17:18;;;;;;;16.65;10.40;;;;;;;;;;4986055;28;20226;-67
2024/03/10 11:19:53;;;;;;;16.20;11.10;;;;;;;;;;4984934;28;20228;-67
2024/03/10 11:22:27;;;;;;;15.70;9.98;;;;;;;;;;4989192;28;20215;-66
2024/03/10 11:25:11;;;;;;;17.17;10.65;;;;;;;;;;4981220;28;20238;-67
2024/03/10 11:27:42;;;;;;;15.20;9.77;;;;;;;;;;4980616;28;20207;-67
2024/03/10 11:30:25;;;;;;;15.88;10.52;;;;;;;;;;4986393;28;20677;-67
2024/03/10 11:33:03;;;;;;;16.67;11.07;;;;;;;;;;4969500;28;20191;-68
2024/03/10 11:35:29;;;;;;;14.40;10.30;;;;;;;;;;4980449;28;20259;-68
2024/03/10 11:37:57;;;;;;;16.20;11.25;;;;;;;;;;4985186;28;20310;-67
2024/03/10 11:40:22;;;;;;;14.20;10.55;;;;;;;;;;4985211;28;20184;-68
2024/03/10 11:42:47;;;;;;;13.90;9.55;;;;;;;;;;4987542;28;20302;-67
2024/03/10 11:45:13;;;;;;;12.23;9.05;;;;;;;;;;4987184;28;20176;-68
2024/03/10 11:47:39;;;;;;;14.32;9.65;;;;;;;;;;4990135;28;20218;-68
2024/03/10 11:50:08;;;;;;;14.77;9.27;;;;;;;;;;4991849;28;20179;-68
2024/03/10 11:52:33;;;;;;;16.30;9.82;;;;;;;;;;4985121;28;20195;-68
2024/03/10 11:54:58;;;;;;;17.00;10.77;;;;;;;;;;4973977;28;20685;-68
2024/03/10 11:57:25;;;;;;;16.38;10.35;;;;;;;;;;4985936;28;20219;-68
2024/03/10 11:59:54;;;;;;;16.95;10.25;;;;;;;;;;4987668;28;20247;-68
2024/03/10 12:02:21;;;;;;;17.13;11.25;;;;;;;;;;4986207;28;20199;-68
2024/03/10 12:04:46;;;;;;;15.27;10.70;;;;;;;;;;4986210;28;20726;-68
2024/03/10 12:07:11;;;;;;;13.25;9.93;;;;;;;;;;4972392;28;20207;-68
2024/03/10 12:09:37;;;;;;;16.65;9.75;;;;;;;;;;4986316;28;20187;-68
2024/03/10 12:12:11;;;;;;;13.90;9.88;;;;;;;;;;4974186;28;20199;-68
2024/03/10 12:14:37;;;;;;;14.80;9.68;;;;;;;;;;4988989;28;20222;-69
2024/03/10 12:17:02;;;;;;;17.52;10.20;;;;;;;;;;4991408;28;20427;-68
2024/03/10 12:19:28;;;;;;;12.50;9.32;;;;;;;;;;4985963;28;20258;-68
2024/03/10 12:21:53;;;;;;;13.25;9.98;;;;;;;;;;4984804;28;20195;-67
2024/03/10 12:24:21;;;;;;;16.40;11.32;;;;;;;;;;4955942;28;20219;-68
2024/03/10 12:26:46;;;;;;;15.30;10.63;;;;;;;;;;4986238;28;20286;-68
2024/03/10 12:29:11;;;;;;;15.20;10.80;;;;;;;;;;4988354;28;20262;-69
2024/03/10 12:31:38;;;;;;;15.43;11.23;;;;;;;;;;4984531;28;20198;-67
2024/03/10 12:34:04;;;;;;;16.15;11.48;;;;;;;;;;4987870;28;20653;-67
2024/03/10 12:36:33;;;;;;;17.98;11.55;;;;;;;;;;4990948;28;20203;-67
2024/03/10 12:38:59;;;;;;;20.75;11.73;;;;;;;;;;4994763;28;20545;-68
2024/03/10 12:41:24;;;;;;;19.75;11.90;;;;;;;;;;4988528;28;20639;-68
2024/03/10 12:43:49;;;;;;;19.58;12.40;;;;;;;;;;4986379;28;20282;-68
2024/03/10 12:46:17;;;;;;;17.85;12.57;;;;;;;;;;4987992;28;20170;-68
2024/03/10 12:48:43;;;;;;;19.80;12.68;;;;;;;;;;4986604;28;20643;-68
2024/03/10 12:51:09;;;;;;;17.15;12.35;;;;;;;;;;4985882;28;20180;-68
2024/03/10 12:53:35;;;;;;;17.48;11.38;;;;;;;;;;4986273;28;20280;-68
2024/03/10 12:56:01;;;;;;;15.63;11.30;;;;;;;;;;4983898;28;20638;-69
2024/03/10 12:58:26;;;;;;;16.92;11.77;;;;;;;;;;4982816;28;20230;-69
2024/03/10 13:00:52;;;;;;;16.50;11.43;;;;;;;;;;4986948;28;20180;-68
2024/03/10 13:03:17;;;;;;;19.40;12.27;;;;;;;;;;4987745;28;20202;-68
2024/03/10 13:05:42;;;;;;;19.92;11.00;;;;;;;;;;4985103;28;20189;-67
2024/03/10 13:08:12;;;;;;;16.65;11.77;;;;;;;;;;4971832;28;20239;-67
2024/03/10 13:10:37;;;;;;;18.25;12.02;;;;;;;;;;4970764;28;20561;-68
2024/03/10 13:13:07;;;;;;;16.15;11.23;;;;;;;;;;4989104;28;20297;-68
2024/03/10 13:15:32;;;;;;;15.45;10.38;;;;;;;;;;4986944;28;20172;-67
2024/03/10 13:17:58;;;;;;;16.58;11.02;;;;;;;;;;4989464;28;20190;-67
2024/03/10 13:20:23;;;;;;;15.23;10.55;;;;;;;;;;4989430;28;20574;-68
2024/03/10 13:22:48;;;;;;;16.77;10.90;;;;;;;;;;4985394;28;20222;-68
2024/03/10 13:25:14;;;;;;;17.90;11.77;;;;;;;;;;4983547;28;20663;-67
2024/03/10 13:27:41;;;;;;;15.93;11.13;;;;;;;;;;4986133;28;20706;-68
2024/03/10 13:30:06;;;;;;;19.52;11.57;;;;;;;;;;4981492;28;20179;-67
2024/03/10 13:32:35;;;;;;;18.42;11.55;;;;;;;;;;4984956;28;20196;-68
2024/03/10 13:35:03;;;;;;;18.27;11.82;;;;;;;;;;4984294;28;20203;-67
2024/03/10 13:37:31;;;;;;;16.83;11.85;;;;;;;;;;4986407;28;20573;-68
2024/03/10 13:39:56;;;;;;;24.85;12.15;;;;;;;;;;4971881;28;20198;-67
2024/03/10 13:42:23;;;;;;;19.05;13.00;;;;;;;;;;4969359;28;20199;-67
2024/03/10 13:44:48;;;;;;;17.80;12.07;;;;;;;;;;4976157;28;20187;-68
2024/03/10 13:47:14;;;;;;;20.85;13.70;;;;;;;;;;4988397;28;20210;-67
2024/03/10 13:49:43;;;;;;;18.77;12.90;;;;;;;;;;4985023;28;20177;-66
2024/03/10 13:52:12;;;;;;;20.48;13.90;;;;;;;;;;4970821;28;20203;-68
2024/03/10 13:54:38;;;;;;;19.30;12.85;;;;;;;;;;4985190;28;20180;-68
2024/03/10 13:57:04;;;;;;;22.98;13.43;;;;;;;;;;4986041;28;20183;-69
2024/03/10 13:59:29;;;;;;;19.15;12.88;;;;;;;;;;4983271;28;20179;-67
2024/03/10 14:01:55;;;;;;;19.13;13.15;;;;;;;;;;4985211;28;20184;-66
2024/03/10 14:04:20;;;;;;;21.40;12.95;;;;;;;;;;4989899;28;20186;-68
2024/03/10 14:06:45;;;;;;;18.42;12.02;;;;;;;;;;4989228;28;20210;-68
2024/03/10 14:09:14;;;;;;;18.95;12.63;;;;;;;;;;4985940;28;20600;-68
2024/03/10 14:11:39;;;;;;;20.20;12.98;;;;;;;;;;4980877;28;20180;-68
2024/03/10 14:14:04;;;;;;;19.95;13.48;;;;;;;;;;4986307;28;20254;-68
2024/03/10 14:16:29;;;;;;;20.15;12.13;;;;;;;;;;4972362;28;20211;-67
2024/03/10 14:18:54;;;;;;;19.35;12.57;;;;;;;;;;4974310;28;20747;-69
2024/03/10 14:21:20;;;;;;;18.70;12.75;;;;;;;;;;4987107;28;20185;-67
2024/03/10 14:23:52;;;;;;;21.17;13.50;;;;;;;;;;5048235;23;20226;-81
2024/03/10 14:26:25;;;;;;;20.55;12.77;;;;;;;;;;4995778;28;20234;-80
2024/03/10 14:29:01;;;;;;;22.35;13.68;;;;;;;;;;4996253;28;20198;-80
2024/03/10 14:31:49;;;;;;;20.33;13.52;;;;;;;;;;4997202;28;20174;-82
2024/03/10 14:34:23;;;;;;;22.05;13.43;;;;;;;;;;4991880;28;20191;-82
2024/03/10 14:36:50;;;;;;;22.85;14.27;;;;;;;;;;4990388;23;20247;-72